sensor_id;sensor_type;location;lat;lon;timestamp;pressure;altitude;pressure_sealevel;temperature;humidity
32638;BME280;19045;52.268;10.506;2023-04-03T00:00:06;102141.28;;;1.10;84.57
32638;BME280;19045;52.268;10.506;2023-04-03T00:02:33;102145.25;;;1.06;85.28
32638;BME280;19045;52.268;10.506;2023-04-03T00:05:00;102145.16;;;0.97;85.27
32638;BME280;19045;52.268;10.506;2023-04-03T00:07:28;102142.91;;;1.02;85.41
32638;BME280;19045;52.268;10.506;2023-04-03T00:09:54;102148.94;;;0.95;85.80
32638;BME280;19045;52.268;10.506;2023-04-03T00:12:21;102140.25;;;1.02;85.60
32638;BME280;19045;52.268;10.506;2023-04-03T00:14:47;102154.47;;;1.01;85.59
32638;BME280;19045;52.268;10.506;2023-04-03T00:17:14;102144.41;;;0.87;86.37
32638;BME280;19045;52.268;10.506;2023-04-03T00:19:41;102153.72;;;0.91;86.16
32638;BME280;19045;52.268;10.506;2023-04-03T00:22:07;102146.53;;;0.84;86.14
32638;BME280;19045;52.268;10.506;2023-04-03T00:24:35;102147.66;;;0.81;86.39
32638;BME280;19045;52.268;10.506;2023-04-03T00:27:02;102148.94;;;0.77;87.00
32638;BME280;19045;52.268;10.506;2023-04-03T00:29:28;102152.84;;;0.73;87.04
32638;BME280;19045;52.268;10.506;2023-04-03T00:31:55;102153.56;;;0.75;87.55
32638;BME280;19045;52.268;10.506;2023-04-03T00:34:22;102148.03;;;0.69;87.64
32638;BME280;19045;52.268;10.506;2023-04-03T00:36:48;102155.13;;;0.68;88.22
32638;BME280;19045;52.268;10.506;2023-04-03T00:39:17;102151.44;;;0.61;87.75
32638;BME280;19045;52.268;10.506;2023-04-03T00:41:44;102170.41;;;0.74;87.80
32638;BME280;19045;52.268;10.506;2023-04-03T00:44:22;102170.16;;;0.68;87.67
32638;BME280;19045;52.268;10.506;2023-04-03T00:46:49;102168.66;;;0.65;88.29
32638;BME280;19045;52.268;10.506;2023-04-03T00:49:15;102169.41;;;0.58;88.49
32638;BME280;19045;52.268;10.506;2023-04-03T00:51:42;102168.72;;;0.56;88.36
32638;BME280;19045;52.268;10.506;2023-04-03T00:54:09;102173.84;;;0.57;88.33
32638;BME280;19045;52.268;10.506;2023-04-03T00:56:37;102170.66;;;0.53;88.65
32638;BME280;19045;52.268;10.506;2023-04-03T00:59:08;102164.78;;;0.42;88.96
32638;BME280;19045;52.268;10.506;2023-04-03T01:01:37;102174.75;;;0.48;89.01
32638;BME280;19045;52.268;10.506;2023-04-03T01:04:05;102175.59;;;0.48;89.04
32638;BME280;19045;52.268;10.506;2023-04-03T01:06:34;102183.53;;;0.48;89.37
32638;BME280;19045;52.268;10.506;2023-04-03T01:09:03;102185.63;;;0.45;89.01
32638;BME280;19045;52.268;10.506;2023-04-03T01:11:30;102185.09;;;0.41;88.95
32638;BME280;19045;52.268;10.506;2023-04-03T01:13:56;102189.59;;;0.31;90.03
32638;BME280;19045;52.268;10.506;2023-04-03T01:16:24;102194.75;;;0.33;89.83
32638;BME280;19045;52.268;10.506;2023-04-03T01:18:52;102188.47;;;0.34;89.84
32638;BME280;19045;52.268;10.506;2023-04-03T01:21:58;102190.25;;;0.33;89.77
32638;BME280;19045;52.268;10.506;2023-04-03T01:24:34;102194.88;;;0.31;90.18
32638;BME280;19045;52.268;10.506;2023-04-03T01:27:01;102192.66;;;0.27;90.50
32638;BME280;19045;52.268;10.506;2023-04-03T01:29:29;102197.13;;;0.26;90.85
32638;BME280;19045;52.268;10.506;2023-04-03T01:31:58;102196.06;;;0.19;90.64
32638;BME280;19045;52.268;10.506;2023-04-03T01:34:26;102199.78;;;0.17;91.17
32638;BME280;19045;52.268;10.506;2023-04-03T01:36:52;102201.22;;;0.11;91.31
32638;BME280;19045;52.268;10.506;2023-04-03T01:39:19;102193.72;;;0.16;91.04
32638;BME280;19045;52.268;10.506;2023-04-03T01:41:46;102197.88;;;0.19;91.45
32638;BME280;19045;52.268;10.506;2023-04-03T01:44:13;102200.25;;;0.12;91.53
32638;BME280;19045;52.268;10.506;2023-04-03T01:46:40;102198.88;;;0.08;91.48
32638;BME280;19045;52.268;10.506;2023-04-03T01:49:09;102195.56;;;0.06;91.87
32638;BME280;19045;52.268;10.506;2023-04-03T01:51:36;102194.31;;;0.00;92.14
32638;BME280;19045;52.268;10.506;2023-04-03T01:54:02;102191.13;;;-0.03;92.35
32638;BME280;19045;52.268;10.506;2023-04-03T01:56:29;102195.59;;;-0.04;92.67
32638;BME280;19045;52.268;10.506;2023-04-03T01:58:56;102203.06;;;0.01;92.41
32638;BME280;19045;52.268;10.506;2023-04-03T02:01:22;102200.75;;;-0.12;92.91
32638;BME280;19045;52.268;10.506;2023-04-03T02:03:49;102203.25;;;-0.10;92.83
32638;BME280;19045;52.268;10.506;2023-04-03T02:06:17;102204.06;;;-0.10;93.06
32638;BME280;19045;52.268;10.506;2023-04-03T02:08:44;102202.44;;;-0.11;93.25
32638;BME280;19045;52.268;10.506;2023-04-03T02:11:10;102204.06;;;-0.10;92.87
32638;BME280;19045;52.268;10.506;2023-04-03T02:13:37;102205.66;;;-0.17;93.65
32638;BME280;19045;52.268;10.506;2023-04-03T02:16:07;102210.78;;;-0.15;93.35
32638;BME280;19045;52.268;10.506;2023-04-03T02:18:35;102202.16;;;-0.17;92.98
32638;BME280;19045;52.268;10.506;2023-04-03T02:21:02;102207.19;;;-0.24;93.71
32638;BME280;19045;52.268;10.506;2023-04-03T02:23:30;102207.84;;;-0.12;92.91
32638;BME280;19045;52.268;10.506;2023-04-03T02:26:04;102205.66;;;-0.26;93.89
32638;BME280;19045;52.268;10.506;2023-04-03T02:28:31;102202.19;;;-0.27;93.89
32638;BME280;19045;52.268;10.506;2023-04-03T02:30:57;102206.91;;;-0.21;93.60
32638;BME280;19045;52.268;10.506;2023-04-03T02:33:24;102209.56;;;-0.30;93.51
32638;BME280;19045;52.268;10.506;2023-04-03T02:35:52;102212.75;;;-0.27;93.63
32638;BME280;19045;52.268;10.506;2023-04-03T02:38:19;102211.47;;;-0.23;93.02
32638;BME280;19045;52.268;10.506;2023-04-03T02:40:47;102221.09;;;-0.31;93.71
32638;BME280;19045;52.268;10.506;2023-04-03T02:43:14;102219.69;;;-0.26;93.56
32638;BME280;19045;52.268;10.506;2023-04-03T02:45:41;102226.50;;;-0.23;93.35
32638;BME280;19045;52.268;10.506;2023-04-03T02:48:07;102220.81;;;-0.28;93.20
32638;BME280;19045;52.268;10.506;2023-04-03T02:50:35;102224.97;;;-0.26;92.86
32638;BME280;19045;52.268;10.506;2023-04-03T02:53:01;102226.38;;;-0.31;93.76
32638;BME280;19045;52.268;10.506;2023-04-03T02:55:28;102231.09;;;-0.25;93.72
32638;BME280;19045;52.268;10.506;2023-04-03T02:57:56;102225.94;;;-0.36;93.29
32638;BME280;19045;52.268;10.506;2023-04-03T03:00:22;102228.75;;;-0.38;94.42
32638;BME280;19045;52.268;10.506;2023-04-03T03:02:49;102229.31;;;-0.34;93.67
32638;BME280;19045;52.268;10.506;2023-04-03T03:05:16;102224.16;;;-0.36;93.33
32638;BME280;19045;52.268;10.506;2023-04-03T03:07:42;102215.13;;;-0.33;93.43
32638;BME280;19045;52.268;10.506;2023-04-03T03:10:09;102224.44;;;-0.39;93.89
32638;BME280;19045;52.268;10.506;2023-04-03T03:12:36;102222.63;;;-0.38;94.09
32638;BME280;19045;52.268;10.506;2023-04-03T03:15:04;102226.94;;;-0.37;93.58
32638;BME280;19045;52.268;10.506;2023-04-03T03:17:31;102223.19;;;-0.35;93.40
32638;BME280;19045;52.268;10.506;2023-04-03T03:19:58;102229.59;;;-0.37;93.08
32638;BME280;19045;52.268;10.506;2023-04-03T03:22:25;102224.88;;;-0.43;93.90
32638;BME280;19045;52.268;10.506;2023-04-03T03:24:52;102232.50;;;-0.40;94.11
32638;BME280;19045;52.268;10.506;2023-04-03T03:27:19;102231.97;;;-0.44;93.82
32638;BME280;19045;52.268;10.506;2023-04-03T03:29:46;102232.34;;;-0.39;93.62
32638;BME280;19045;52.268;10.506;2023-04-03T03:32:14;102232.94;;;-0.45;93.95
32638;BME280;19045;52.268;10.506;2023-04-03T03:34:40;102234.59;;;-0.44;93.67
32638;BME280;19045;52.268;10.506;2023-04-03T03:37:07;102241.81;;;-0.46;94.30
32638;BME280;19045;52.268;10.506;2023-04-03T03:39:34;102238.38;;;-0.46;93.86
32638;BME280;19045;52.268;10.506;2023-04-03T03:42:00;102235.84;;;-0.48;94.29
32638;BME280;19045;52.268;10.506;2023-04-03T03:44:27;102241.13;;;-0.48;93.76
32638;BME280;19045;52.268;10.506;2023-04-03T03:46:54;102240.84;;;-0.55;93.65
32638;BME280;19045;52.268;10.506;2023-04-03T03:49:22;102244.06;;;-0.51;93.53
32638;BME280;19045;52.268;10.506;2023-04-03T03:51:49;102238.06;;;-0.53;93.92
32638;BME280;19045;52.268;10.506;2023-04-03T03:54:17;102230.59;;;-0.58;94.17
32638;BME280;19045;52.268;10.506;2023-04-03T03:56:43;102235.03;;;-0.58;94.71
32638;BME280;19045;52.268;10.506;2023-04-03T03:59:11;102241.41;;;-0.61;94.61
32638;BME280;19045;52.268;10.506;2023-04-03T04:01:38;102238.91;;;-0.62;94.51
32638;BME280;19045;52.268;10.506;2023-04-03T04:04:04;102244.91;;;-0.60;94.23
32638;BME280;19045;52.268;10.506;2023-04-03T04:06:32;102237.78;;;-0.69;94.63
32638;BME280;19045;52.268;10.506;2023-04-03T04:08:59;102242.50;;;-0.73;95.26
32638;BME280;19045;52.268;10.506;2023-04-03T04:11:26;102243.63;;;-0.66;94.73
32638;BME280;19045;52.268;10.506;2023-04-03T04:13:53;102245.72;;;-0.69;94.91
32638;BME280;19045;52.268;10.506;2023-04-03T04:16:20;102242.66;;;-0.74;95.09
32638;BME280;19045;52.268;10.506;2023-04-03T04:18:46;102244.47;;;-0.75;95.59
32638;BME280;19045;52.268;10.506;2023-04-03T04:21:13;102242.66;;;-0.74;95.40
32638;BME280;19045;52.268;10.506;2023-04-03T04:23:41;102242.66;;;-0.74;96.02
32638;BME280;19045;52.268;10.506;2023-04-03T04:26:07;102234.75;;;-0.74;95.79
32638;BME280;19045;52.268;10.506;2023-04-03T04:28:34;102246.28;;;-0.75;95.52
32638;BME280;19045;52.268;10.506;2023-04-03T04:31:01;102239.47;;;-0.78;95.70
32638;BME280;19045;52.268;10.506;2023-04-03T04:33:27;102242.78;;;-0.76;95.43
32638;BME280;19045;52.268;10.506;2023-04-03T04:35:54;102239.75;;;-0.81;95.80
32638;BME280;19045;52.268;10.506;2023-04-03T04:38:21;102249.91;;;-0.76;96.02
32638;BME280;19045;52.268;10.506;2023-04-03T04:40:49;102250.44;;;-0.82;95.35
32638;BME280;19045;52.268;10.506;2023-04-03T04:43:16;102260.97;;;-0.82;95.65
32638;BME280;19045;52.268;10.506;2023-04-03T04:45:43;102273.09;;;-0.80;95.40
32638;BME280;19045;52.268;10.506;2023-04-03T04:48:10;102266.81;;;-0.79;95.04
32638;BME280;19045;52.268;10.506;2023-04-03T04:50:37;102271.81;;;-0.85;95.60
32638;BME280;19045;52.268;10.506;2023-04-03T04:53:03;102272.38;;;-0.82;95.86
32638;BME280;19045;52.268;10.506;2023-04-03T04:55:30;102273.31;;;-0.92;95.99
32638;BME280;19045;52.268;10.506;2023-04-03T04:57:58;102275.00;;;-0.91;96.49
32638;BME280;19045;52.268;10.506;2023-04-03T05:00:25;102276.97;;;-0.93;96.32
32638;BME280;19045;52.268;10.506;2023-04-03T05:02:52;102289.88;;;-0.90;96.43
32638;BME280;19045;52.268;10.506;2023-04-03T05:05:18;102279.44;;;-0.92;96.54
32638;BME280;19045;52.268;10.506;2023-04-03T05:07:45;102280.28;;;-0.91;96.73
32638;BME280;19045;52.268;10.506;2023-04-03T05:10:11;102278.47;;;-0.91;96.36
32638;BME280;19045;52.268;10.506;2023-04-03T05:12:38;102291.94;;;-0.94;96.64
32638;BME280;19045;52.268;10.506;2023-04-03T05:15:07;102291.66;;;-0.91;97.16
32638;BME280;19045;52.268;10.506;2023-04-03T05:17:34;102294.88;;;-0.87;96.88
32638;BME280;19045;52.268;10.506;2023-04-03T05:20:01;102291.13;;;-0.75;96.12
32638;BME280;19045;52.268;10.506;2023-04-03T05:22:29;102292.94;;;-0.66;95.78
32638;BME280;19045;52.268;10.506;2023-04-03T05:24:55;102305.31;;;-0.67;95.84
32638;BME280;19045;52.268;10.506;2023-04-03T05:27:24;102303.06;;;-0.62;95.73
32638;BME280;19045;52.268;10.506;2023-04-03T05:29:53;102293.63;;;-0.45;95.49
32638;BME280;19045;52.268;10.506;2023-04-03T05:32:22;102304.03;;;-0.15;93.87
32638;BME280;19045;52.268;10.506;2023-04-03T05:34:48;102306.09;;;0.01;92.47
32638;BME280;19045;52.268;10.506;2023-04-03T05:37:15;102305.91;;;0.22;91.65
32638;BME280;19045;52.268;10.506;2023-04-03T05:39:42;102302.22;;;0.42;90.41
32638;BME280;19045;52.268;10.506;2023-04-03T05:42:08;102308.28;;;0.62;88.98
32638;BME280;19045;52.268;10.506;2023-04-03T05:44:36;102314.78;;;0.67;88.20
32638;BME280;19045;52.268;10.506;2023-04-03T05:47:03;102312.78;;;0.79;87.63
32638;BME280;19045;52.268;10.506;2023-04-03T05:49:34;102319.41;;;0.92;87.15
32638;BME280;19045;52.268;10.506;2023-04-03T05:52:05;102322.72;;;0.94;86.74
32638;BME280;19045;52.268;10.506;2023-04-03T05:54:33;102312.78;;;1.06;86.65
32638;BME280;19045;52.268;10.506;2023-04-03T05:56:59;102325.94;;;1.33;84.72
32638;BME280;19045;52.268;10.506;2023-04-03T05:59:26;102329.97;;;1.55;84.68
32638;BME280;19045;52.268;10.506;2023-04-03T06:01:52;102327.53;;;1.79;84.25
32638;BME280;19045;52.268;10.506;2023-04-03T06:04:19;102331.84;;;1.80;82.60
32638;BME280;19045;52.268;10.506;2023-04-03T06:06:50;102328.34;;;1.97;82.13
32638;BME280;19045;52.268;10.506;2023-04-03T06:09:19;102333.84;;;2.22;80.29
32638;BME280;19045;52.268;10.506;2023-04-03T06:11:46;102339.97;;;2.48;79.91
32638;BME280;19045;52.268;10.506;2023-04-03T06:14:13;102344.47;;;2.30;78.93
32638;BME280;19045;52.268;10.506;2023-04-03T06:16:40;102348.03;;;2.38;79.24
32638;BME280;19045;52.268;10.506;2023-04-03T06:19:07;102338.53;;;2.36;78.68
32638;BME280;19045;52.268;10.506;2023-04-03T06:21:35;102344.84;;;2.35;78.03
32638;BME280;19045;52.268;10.506;2023-04-03T06:24:04;102349.16;;;2.36;77.76
32638;BME280;19045;52.268;10.506;2023-04-03T06:26:33;102344.41;;;2.73;77.64
32638;BME280;19045;52.268;10.506;2023-04-03T06:29:00;102344.78;;;2.86;74.77
32638;BME280;19045;52.268;10.506;2023-04-03T06:31:27;102347.31;;;2.96;75.54
32638;BME280;19045;52.268;10.506;2023-04-03T06:33:54;102343.88;;;3.03;73.92
32638;BME280;19045;52.268;10.506;2023-04-03T06:36:21;102338.47;;;3.29;73.39
32638;BME280;19045;52.268;10.506;2023-04-03T06:38:48;102340.78;;;3.32;72.06
32638;BME280;19045;52.268;10.506;2023-04-03T06:41:16;102349.44;;;3.42;71.88
32638;BME280;19045;52.268;10.506;2023-04-03T06:43:44;102344.00;;;3.68;71.56
32638;BME280;19045;52.268;10.506;2023-04-03T06:46:14;102360.66;;;3.94;70.83
32638;BME280;19045;52.268;10.506;2023-04-03T06:48:41;102350.66;;;4.12;69.64
32638;BME280;19045;52.268;10.506;2023-04-03T06:51:15;102358.78;;;4.19;69.50
32638;BME280;19045;52.268;10.506;2023-04-03T06:53:43;102361.28;;;4.29;67.88
32638;BME280;19045;52.268;10.506;2023-04-03T06:56:10;102364.44;;;4.08;67.70
32638;BME280;19045;52.268;10.506;2023-04-03T06:58:37;102353.97;;;3.98;68.27
32638;BME280;19045;52.268;10.506;2023-04-03T07:01:04;102364.75;;;4.29;73.93
32638;BME280;19045;52.268;10.506;2023-04-03T07:03:31;102365.22;;;4.57;73.21
32638;BME280;19045;52.268;10.506;2023-04-03T07:05:57;102374.50;;;4.77;69.81
32638;BME280;19045;52.268;10.506;2023-04-03T07:08:24;102369.72;;;5.03;68.97
32638;BME280;19045;52.268;10.506;2023-04-03T07:10:51;102370.94;;;5.54;70.25
32638;BME280;19045;52.268;10.506;2023-04-03T07:13:18;102377.88;;;5.63;65.65
32638;BME280;19045;52.268;10.506;2023-04-03T07:15:46;102385.56;;;5.66;64.57
32638;BME280;19045;52.268;10.506;2023-04-03T07:18:13;102385.25;;;5.84;63.31
32638;BME280;19045;52.268;10.506;2023-04-03T07:20:40;102378.84;;;5.93;61.27
32638;BME280;19045;52.268;10.506;2023-04-03T07:23:06;102381.22;;;6.11;59.96
32638;BME280;19045;52.268;10.506;2023-04-03T07:25:33;102391.59;;;6.29;60.86
32638;BME280;19045;52.268;10.506;2023-04-03T07:27:59;102397.28;;;6.26;59.66
32638;BME280;19045;52.268;10.506;2023-04-03T07:30:27;102394.75;;;5.87;59.63
32638;BME280;19045;52.268;10.506;2023-04-03T07:32:55;102397.56;;;5.85;60.16
32638;BME280;19045;52.268;10.506;2023-04-03T07:35:22;102400.56;;;5.90;62.46
32638;BME280;19045;52.268;10.506;2023-04-03T07:37:48;102409.44;;;6.28;60.49
32638;BME280;19045;52.268;10.506;2023-04-03T07:40:15;102399.91;;;6.63;58.62
32638;BME280;19045;52.268;10.506;2023-04-03T07:42:42;102399.75;;;6.94;58.73
32638;BME280;19045;52.268;10.506;2023-04-03T07:45:09;102409.25;;;7.25;57.46
32638;BME280;19045;52.268;10.506;2023-04-03T07:47:36;102402.88;;;7.62;56.28
32638;BME280;19045;52.268;10.506;2023-04-03T07:50:05;102400.66;;;7.87;55.33
32638;BME280;19045;52.268;10.506;2023-04-03T07:52:31;102408.06;;;7.85;54.79
32638;BME280;19045;52.268;10.506;2023-04-03T07:54:58;102400.22;;;8.05;55.02
32638;BME280;19045;52.268;10.506;2023-04-03T07:57:24;102395.00;;;8.18;53.79
32638;BME280;19045;52.268;10.506;2023-04-03T07:59:51;102390.53;;;8.04;53.38
32638;BME280;19045;52.268;10.506;2023-04-03T08:02:18;102399.84;;;7.65;52.88
32638;BME280;19045;52.268;10.506;2023-04-03T08:04:45;102395.75;;;7.34;53.13
32638;BME280;19045;52.268;10.506;2023-04-03T08:07:13;102388.31;;;7.29;53.78
32638;BME280;19045;52.268;10.506;2023-04-03T08:09:40;102375.69;;;7.59;52.51
32638;BME280;19045;52.268;10.506;2023-04-03T08:12:07;102389.31;;;7.28;52.63
32638;BME280;19045;52.268;10.506;2023-04-03T08:14:36;102392.84;;;7.50;52.79
32638;BME280;19045;52.268;10.506;2023-04-03T08:17:03;102397.50;;;7.26;52.88
32638;BME280;19045;52.268;10.506;2023-04-03T08:19:34;102382.50;;;7.61;51.75
32638;BME280;19045;52.268;10.506;2023-04-03T08:22:01;102389.66;;;7.97;51.40
32638;BME280;19045;52.268;10.506;2023-04-03T08:24:30;102385.31;;;8.17;49.83
32638;BME280;19045;52.268;10.506;2023-04-03T08:26:56;102378.44;;;8.57;49.65
32638;BME280;19045;52.268;10.506;2023-04-03T08:29:23;102377.78;;;9.30;47.77
32638;BME280;19045;52.268;10.506;2023-04-03T08:31:51;102385.03;;;8.95;46.34
32638;BME280;19045;52.268;10.506;2023-04-03T08:34:19;102379.97;;;8.38;47.26
32638;BME280;19045;52.268;10.506;2023-04-03T08:36:46;102377.38;;;8.09;48.83
32638;BME280;19045;52.268;10.506;2023-04-03T08:39:14;102383.16;;;8.55;48.40
32638;BME280;19045;52.268;10.506;2023-04-03T08:41:42;102375.84;;;9.11;46.30
32638;BME280;19045;52.268;10.506;2023-04-03T08:44:17;102368.66;;;9.11;45.17
32638;BME280;19045;52.268;10.506;2023-04-03T08:47:02;102378.59;;;9.24;44.57
32638;BME280;19045;52.268;10.506;2023-04-03T08:49:32;102383.69;;;9.12;44.03
32638;BME280;19045;52.268;10.506;2023-04-03T08:52:03;102367.31;;;9.55;43.76
32638;BME280;19045;52.268;10.506;2023-04-03T08:54:33;102369.97;;;9.42;42.67
32638;BME280;19045;52.268;10.506;2023-04-03T08:57:04;102370.41;;;9.52;41.42
32638;BME280;19045;52.268;10.506;2023-04-03T08:59:34;102369.66;;;9.71;41.06
32638;BME280;19045;52.268;10.506;2023-04-03T09:02:04;102366.38;;;10.61;40.27
32638;BME280;19045;52.268;10.506;2023-04-03T09:04:41;102373.44;;;11.19;38.87
32638;BME280;19045;52.268;10.506;2023-04-03T09:07:14;102379.19;;;10.65;39.54
32638;BME280;19045;52.268;10.506;2023-04-03T09:09:44;102383.09;;;9.84;40.38
32638;BME280;19045;52.268;10.506;2023-04-03T09:12:19;102380.47;;;10.23;40.36
32638;BME280;19045;52.268;10.506;2023-04-03T09:14:56;102377.22;;;11.05;38.85
32638;BME280;19045;52.268;10.506;2023-04-03T09:17:35;102377.31;;;10.72;37.85
32638;BME280;19045;52.268;10.506;2023-04-03T09:20:17;102379.81;;;10.61;38.29
32638;BME280;19045;52.268;10.506;2023-04-03T09:22:45;102385.41;;;11.68;37.58
32638;BME280;19045;52.268;10.506;2023-04-03T09:25:15;102368.59;;;11.79;37.15
32638;BME280;19045;52.268;10.506;2023-04-03T09:27:45;102367.56;;;13.15;35.28
32638;BME280;19045;52.268;10.506;2023-04-03T09:30:14;102372.56;;;15.06;32.26
32638;BME280;19045;52.268;10.506;2023-04-03T09:32:41;102370.72;;;16.08;30.81
32638;BME280;19045;52.268;10.506;2023-04-03T09:35:19;102369.69;;;14.61;32.09
32638;BME280;19045;52.268;10.506;2023-04-03T09:37:48;102376.16;;;13.06;34.39
32638;BME280;19045;52.268;10.506;2023-04-03T09:40:38;102372.13;;;12.54;34.50
32638;BME280;19045;52.268;10.506;2023-04-03T09:43:24;102364.91;;;12.72;35.14
32638;BME280;19045;52.268;10.506;2023-04-03T09:45:51;102365.25;;;12.58;34.67
32638;BME280;19045;52.268;10.506;2023-04-03T09:48:20;102347.59;;;15.43;31.70
32638;BME280;19045;52.268;10.506;2023-04-03T09:50:57;102351.66;;;16.02;30.08
32638;BME280;19045;52.268;10.506;2023-04-03T09:53:36;102357.34;;;13.47;32.83
32638;BME280;19045;52.268;10.506;2023-04-03T09:56:09;102364.88;;;10.78;36.15
32638;BME280;19045;52.268;10.506;2023-04-03T09:58:47;102357.47;;;9.01;39.81
32638;BME280;19045;52.268;10.506;2023-04-03T10:01:27;102351.78;;;8.21;41.43
32638;BME280;19045;52.268;10.506;2023-04-03T10:04:07;102353.28;;;7.81;42.73
32638;BME280;19045;52.268;10.506;2023-04-03T10:06:37;102347.72;;;7.82;43.62
32638;BME280;19045;52.268;10.506;2023-04-03T10:09:16;102360.13;;;7.12;44.02
32638;BME280;19045;52.268;10.506;2023-04-03T10:11:58;102346.69;;;7.41;43.76
32638;BME280;19045;52.268;10.506;2023-04-03T10:14:55;102345.88;;;6.90;45.48
32638;BME280;19045;52.268;10.506;2023-04-03T10:17:31;102342.22;;;6.62;46.47
32638;BME280;19045;52.268;10.506;2023-04-03T10:20:09;102344.59;;;6.42;46.98
32638;BME280;19045;52.268;10.506;2023-04-03T10:22:55;102341.00;;;6.64;47.02
32638;BME280;19045;52.268;10.506;2023-04-03T10:25:29;102334.44;;;6.67;45.46
32638;BME280;19045;52.268;10.506;2023-04-03T10:28:00;102339.97;;;6.51;46.18
32638;BME280;19045;52.268;10.506;2023-04-03T10:30:38;102338.78;;;6.53;45.54
32638;BME280;19045;52.268;10.506;2023-04-03T10:33:19;102332.44;;;6.69;45.49
32638;BME280;19045;52.268;10.506;2023-04-03T10:35:54;102332.13;;;6.93;44.37
32638;BME280;19045;52.268;10.506;2023-04-03T10:38:33;102323.53;;;8.80;41.50
32638;BME280;19045;52.268;10.506;2023-04-03T10:41:07;102326.16;;;14.74;33.15
32638;BME280;19045;52.268;10.506;2023-04-03T10:43:41;102330.09;;;19.02;26.78
32638;BME280;19045;52.268;10.506;2023-04-03T10:46:13;102320.06;;;21.33;23.77
32638;BME280;19045;52.268;10.506;2023-04-03T10:48:59;102307.75;;;24.10;21.65
32638;BME280;19045;52.268;10.506;2023-04-03T10:51:34;102319.06;;;21.58;22.48
32638;BME280;19045;52.268;10.506;2023-04-03T10:54:08;102312.75;;;22.30;22.00
32638;BME280;19045;52.268;10.506;2023-04-03T10:56:40;102316.78;;;22.85;21.64
32638;BME280;19045;52.268;10.506;2023-04-03T10:59:16;102321.53;;;19.76;23.94
32638;BME280;19045;52.268;10.506;2023-04-03T11:01:49;102306.22;;;14.91;28.51
32638;BME280;19045;52.268;10.506;2023-04-03T11:04:19;102323.66;;;12.04;32.23
32638;BME280;19045;52.268;10.506;2023-04-03T11:06:50;102324.06;;;9.97;36.47
32638;BME280;19045;52.268;10.506;2023-04-03T11:09:23;102323.56;;;9.41;37.92
32638;BME280;19045;52.268;10.506;2023-04-03T11:11:51;102308.63;;;8.65;37.72
32638;BME280;19045;52.268;10.506;2023-04-03T11:14:25;102310.13;;;8.40;38.82
32638;BME280;19045;52.268;10.506;2023-04-03T11:17:05;102311.13;;;8.11;40.14
32638;BME280;19045;52.268;10.506;2023-04-03T11:19:39;102308.38;;;7.55;41.01
32638;BME280;19045;52.268;10.506;2023-04-03T11:22:12;102310.13;;;7.27;42.00
32638;BME280;19045;52.268;10.506;2023-04-03T11:24:43;102302.72;;;7.08;42.96
32638;BME280;19045;52.268;10.506;2023-04-03T11:27:15;102313.00;;;8.38;40.57
32638;BME280;19045;52.268;10.506;2023-04-03T11:29:44;102301.38;;;8.59;40.12
32638;BME280;19045;52.268;10.506;2023-04-03T11:32:30;102295.28;;;11.77;34.81
32638;BME280;19045;52.268;10.506;2023-04-03T11:35:01;102277.69;;;18.75;27.39
32638;BME280;19045;52.268;10.506;2023-04-03T11:37:31;102274.72;;;23.70;22.28
32638;BME280;19045;52.268;10.506;2023-04-03T11:40:03;102265.84;;;25.14;19.30
32638;BME280;19045;52.268;10.506;2023-04-03T11:42:34;102269.63;;;25.62;19.03
32638;BME280;19045;52.268;10.506;2023-04-03T11:45:26;102263.69;;;23.88;18.84
32638;BME280;19045;52.268;10.506;2023-04-03T11:47:58;102258.78;;;24.86;18.91
32638;BME280;19045;52.268;10.506;2023-04-03T11:50:38;102262.53;;;21.04;20.93
32638;BME280;19045;52.268;10.506;2023-04-03T11:53:31;102267.75;;;17.70;24.61
32638;BME280;19045;52.268;10.506;2023-04-03T11:56:27;102270.94;;;15.15;27.55
32638;BME280;19045;52.268;10.506;2023-04-03T11:59:15;102266.06;;;13.26;30.42
32638;BME280;19045;52.268;10.506;2023-04-03T12:01:44;102260.69;;;12.41;32.07
32638;BME280;19045;52.268;10.506;2023-04-03T12:04:14;102259.81;;;12.66;32.16
32638;BME280;19045;52.268;10.506;2023-04-03T12:10:14;102258.19;;;12.04;32.97
32638;BME280;19045;52.268;10.506;2023-04-03T12:12:42;102248.34;;;12.34;33.75
32638;BME280;19045;52.268;10.506;2023-04-03T12:21:20;102256.94;;;10.04;36.10
32638;BME280;19045;52.268;10.506;2023-04-03T12:24:03;102258.31;;;9.14;36.24
32638;BME280;19045;52.268;10.506;2023-04-03T12:26:36;102253.22;;;9.72;35.98
32638;BME280;19045;52.268;10.506;2023-04-03T12:29:14;102255.44;;;10.27;35.19
32638;BME280;19045;52.268;10.506;2023-04-03T12:31:48;102247.56;;;10.46;35.55
32638;BME280;19045;52.268;10.506;2023-04-03T12:34:31;102248.25;;;9.88;36.32
32638;BME280;19045;52.268;10.506;2023-04-03T12:37:17;102251.09;;;9.21;37.45
32638;BME280;19045;52.268;10.506;2023-04-03T12:40:01;102246.38;;;8.63;38.51
32638;BME280;19045;52.268;10.506;2023-04-03T12:42:45;102245.97;;;9.40;37.02
32638;BME280;19045;52.268;10.506;2023-04-03T12:45:19;102232.50;;;10.31;35.99
32638;BME280;19045;52.268;10.506;2023-04-03T12:47:49;102233.66;;;11.06;34.41
32638;BME280;19045;52.268;10.506;2023-04-03T12:50:22;102234.22;;;10.77;34.59
32638;BME280;19045;52.268;10.506;2023-04-03T12:52:57;102231.88;;;10.36;34.96
32638;BME280;19045;52.268;10.506;2023-04-03T12:55:25;102226.78;;;10.72;34.19
32638;BME280;19045;52.268;10.506;2023-04-03T12:57:52;102214.31;;;11.47;32.81
32638;BME280;19045;52.268;10.506;2023-04-03T13:00:25;102221.19;;;11.68;32.14
32638;BME280;19045;52.268;10.506;2023-04-03T13:02:52;102223.03;;;11.99;31.95
32638;BME280;19045;52.268;10.506;2023-04-03T13:05:21;102212.13;;;11.62;32.76
32638;BME280;19045;52.268;10.506;2023-04-03T13:07:49;102213.03;;;11.56;32.77